メインページ
METAR-TAF:

METAR-TAF

空港 :

長崎空港

長崎, 日本

緯度: 32-55N, 経度: 129-55E, 海抜: 2m

現時点の気象観測

当レポートは49分前の11:00(UTC)に作成
北/北西の風 9kt
気温 19°C
湿度 73%
気圧 1014 hPa
視程10km以上
高度3000ftの雲はほとんどない
高度7000ftの千切れ雲あり
高度12000ftの千切れ雲あり

METAR: RJFU 201100Z 33009KT 9999 FEW030 BKN070 BKN120 19/14 Q1014

時間: 20:49 (11:49 UTC)

予報

当レポートは34分前の11:15(UTC)に作成
予報は20日の 12時(UTC)から 21日の 18時(UTC)まで有効
の風 10kt
視程10km以上
高度3000ftの雲はほとんどない
高度5000ftの千切れ雲あり
20日の 13時(UTC)から 20日の 15時(UTC)まで徐々に
南東の風 3kt
20日の 17時(UTC)から 20日の 19時(UTC)まで徐々に
の風 6kt
20日の 19時(UTC)から 20日の 21時(UTC)まで徐々に
東/南東の風 10kt
21日の 03時(UTC)から 21日の 09時(UTC)まで一時的に
東/南東の風 15kt、最大27ktの突風を伴う

TAF: RJFU 201115Z 2012/2118 35010KT 9999 FEW030 BKN050 BECMG 2013/2015 13003KT BECMG 2017/2019 01006KT BECMG 2019/2021 11010KT TEMPO 2103/2109 11015G27KT

4,000以上の空港の気象観測と天気予報(METAR報とTAF報)

利用可能な観測所は地図上に黄色い丸と赤い丸で示す。

丸の上にカーソルを重ねると観測所名を参照できる。

次にクリックすると気象観測と天気予報を参照できる。

マップの切り替え:黒色「×」印の緑ボタンをクリックして拡大、「-」印の緑ボタンをクリックして縮小、緑色の三角印をクリックして隣りの地図に切り替え


METAR-TAF: